RKPK/PUS METAR and TAF weather

Enter ICAO airport designator
Station Type Date Time Source
RKPK METAR 2019/12/11 12:00 UTC NOAA

RKPK 111200Z 32014KT 9999 SCT040 09/M04 Q1017


Station Type Date Time Source
RKPK Decoded METAR 2019/12/11 12:00 UTC NOAA

Pusan / Kimhae International Airport, Korea, South (RKPK) 35-11N 128-56E 6M
Dec 11, 2019 - 07:00 AM EST / 2019.12.11 1200 UTC
Wind: from the NW (320 degrees) at 16 MPH (14 KT):0
Visibility: greater than 7 mile(s):0
Sky conditions: partly cloudy
Temperature: 48 F (9 C)
Dew Point: 24 F (-4 C)
Relative Humidity: 39%
Pressure (altimeter): 30.03 in. Hg (1017 hPa)
ob: RKPK 111200Z 32014KT 9999 SCT040 09/M04 Q1017
cycle: 12

Station Type Date Time Source
RKPK TAF 2019/12/11 12:03 UTC NOAA

TAF RKPK 111100Z 1112/1218 30008KT 9999 SCT030 TN02/1121Z TX09/1206Z

Example: see airport list